Portada
METAR-TAF:

METAR-TAF

Aeropuertos :

Aeropuerto de Pointe-Noire

Pointe-Noire, Congo

latitud: 04-49S, longitud: 011-54E, altitud: 17 m

Observación

El informe se hizo hace 15 horas y 14 minutos, a las 05:00 UTC
Viento 4 kt del este-sureste
Temperatura 20°C
Humedad 100%
Presión 1016 hPa
Visibilidad: 7000 m
Escasas nubes a una altura de 1000 ft
Cielo nuboso a una altura de 2300 ft

METAR: FCPP 210500Z 11004KT 7000 FEW010 BKN023 20/20 Q1016 NOSIG

Hora: 21:14 (20:14 UTC)

Pronóstico

El informe se hizo hace 15 horas y 14 minutos, a las 05:00 UTC
Pronóstico válido del 21 a las 06 UTC al 22 a las 06 UTC
Viento 7 kt del sur
Visibilidad: 7000 m
Nubes dispersas a una altura de 1200 ft
Cielo nuboso a una altura de 2600 ft

TAF: FCPP 210500Z 2106/2206 18007KT 7000 SCT012 BKN026

Observaciones y pronósticos meteorológicos de más de 4000 aeropuertos (mensajes METAR y TAF).

Los puntos amarillos y rojos representan las estaciones disponibles.

Ponga el ratón en el punto deseado para ver el nombre de la estación.

Haga clic para ver las observaciones y los pronósticos meteorológicos.

Para cambiar el mapa : haga clic en los botones verdes con una cruz de color negro para hacer un zoom, en el botón verde con un guión para alejar o en las flechas verdes para mapas adyacentes.


METAR-TAF: